createdAt,value
2018-03-15T00:00:13.666Z,85.75
2018-03-15T00:02:43.045Z,85.59
2018-03-15T00:05:16.034Z,85.77
2018-03-15T00:07:46.416Z,85.99
2018-03-15T00:10:17.204Z,86.51
2018-03-15T00:12:46.995Z,87.19
2018-03-15T00:15:16.662Z,87.68
2018-03-15T00:17:46.198Z,87.95
2018-03-15T00:20:25.220Z,88.05
2018-03-15T00:22:57.218Z,89.01
2018-03-15T00:25:27.091Z,91.46
2018-03-15T00:27:56.867Z,91.05
2018-03-15T00:34:01.924Z,87.91
2018-03-15T00:37:03.820Z,86.09
2018-03-15T00:40:04.490Z,84.80
2018-03-15T00:42:39.335Z,83.83
2018-03-15T00:45:09.003Z,83.76
2018-03-15T00:47:39.475Z,83.94
2018-03-15T00:50:11.050Z,85.63
2018-03-15T00:52:40.780Z,87.56
2018-03-15T00:55:11.101Z,87.27
2018-03-15T00:57:40.776Z,85.70
2018-03-15T01:00:10.479Z,84.84
2018-03-15T01:02:40.177Z,84.35
2018-03-15T01:05:10.481Z,84.19
2018-03-15T01:07:40.231Z,84.65
2018-03-15T01:10:10.042Z,84.79
2018-03-15T01:12:39.782Z,84.40
2018-03-15T01:15:09.314Z,83.92
2018-03-15T01:17:39.017Z,83.39
2018-03-15T01:20:09.613Z,83.53
2018-03-15T01:22:39.210Z,83.56
2018-03-15T01:25:08.759Z,83.73
2018-03-15T01:27:38.383Z,84.51
2018-03-15T01:30:09.073Z,84.14
2018-03-15T01:32:38.942Z,84.47
2018-03-15T01:35:08.745Z,84.47
2018-03-15T01:37:38.467Z,84.52
2018-03-15T01:40:08.209Z,84.93
2018-03-15T01:42:37.889Z,84.85
2018-03-15T01:45:07.915Z,84.85
2018-03-15T01:47:37.351Z,84.71
2018-03-15T01:50:07.051Z,84.83
2018-03-15T01:52:36.594Z,84.85
2018-03-15T01:55:07.011Z,85.34
2018-03-15T01:57:37.711Z,85.83
2018-03-15T02:00:07.385Z,85.69
2018-03-15T02:02:37.134Z,85.93
2018-03-15T02:05:06.736Z,86.08
2018-03-15T02:07:36.354Z,86.12
2018-03-15T02:10:09.044Z,86.17
2018-03-15T02:12:39.433Z,85.99
2018-03-15T02:15:09.063Z,86.16
2018-03-15T02:17:38.525Z,85.79
2018-03-15T02:20:09.110Z,86.17
2018-03-15T02:22:38.825Z,86.51
2018-03-15T02:25:08.594Z,86.06
2018-03-15T02:27:38.932Z,86.56
2018-03-15T02:30:08.523Z,86.21
2018-03-15T02:32:38.059Z,86.39
2018-03-15T02:35:07.675Z,86.52
2018-03-15T02:37:38.716Z,86.71
2018-03-15T02:40:08.395Z,86.71
2018-03-15T02:42:38.244Z,86.59
2018-03-15T02:45:07.774Z,86.66
2018-03-15T02:47:37.356Z,87.04
2018-03-15T02:50:06.876Z,87.27
2018-03-15T02:52:37.385Z,87.21
2018-03-15T02:55:07.394Z,87.21
2018-03-15T02:57:36.899Z,87.10
2018-03-15T03:00:06.538Z,87.02
2018-03-15T03:02:36.092Z,87.44
2018-03-15T03:05:06.664Z,87.67
2018-03-15T03:07:36.357Z,87.82
2018-03-15T03:10:05.887Z,87.99
2018-03-15T03:12:36.391Z,87.85
2018-03-15T03:15:06.799Z,87.74
2018-03-15T03:17:36.544Z,87.59
2018-03-15T03:20:06.283Z,87.75
2018-03-15T03:22:36.702Z,87.93
2018-03-15T03:25:07.802Z,88.30
2018-03-15T03:27:38.457Z,88.42
2018-03-15T03:30:10.088Z,88.74
2018-03-15T03:32:40.744Z,88.26
2018-03-15T03:35:10.844Z,88.75
2018-03-15T03:37:41.490Z,88.54
2018-03-15T03:40:11.369Z,88.87
2018-03-15T03:42:41.736Z,88.84
2018-03-15T03:45:11.318Z,88.84
2018-03-15T03:47:43.045Z,89.40
2018-03-15T03:50:13.829Z,89.59
2018-03-15T03:52:43.314Z,89.74
2018-03-15T03:55:12.811Z,89.85
2018-03-15T03:57:43.418Z,90.37
2018-03-15T04:00:13.097Z,90.22
2018-03-15T04:02:42.795Z,89.88
2018-03-15T04:05:12.338Z,89.95
2018-03-15T04:07:42.016Z,89.43
2018-03-15T04:10:11.583Z,88.43
2018-03-15T04:12:41.971Z,87.90
2018-03-15T04:15:12.373Z,87.39
2018-03-15T04:17:42.021Z,87.09
2018-03-15T04:20:12.361Z,86.57
2018-03-15T04:22:41.913Z,86.68
2018-03-15T04:25:11.591Z,87.26
2018-03-15T04:27:41.131Z,87.67
2018-03-15T04:30:10.847Z,87.82
2018-03-15T04:32:40.323Z,89.47
2018-03-15T04:35:09.944Z,90.66
2018-03-15T04:37:39.674Z,89.67
2018-03-15T04:40:09.186Z,90.20
2018-03-15T04:42:38.746Z,90.52
2018-03-15T04:45:08.392Z,90.93
2018-03-15T04:47:38.024Z,91.22
2018-03-15T04:50:08.634Z,91.25
2018-03-15T04:52:38.219Z,91.44
2018-03-15T04:55:07.732Z,91.76
2018-03-15T04:57:37.969Z,92.02
2018-03-15T05:00:07.491Z,91.88
2018-03-15T05:02:38.216Z,92.18
2018-03-15T05:05:08.072Z,92.43
2018-03-15T05:07:38.564Z,92.48
2018-03-15T05:20:35.577Z,93.17
2018-03-15T05:23:05.127Z,93.15
2018-03-15T05:25:34.781Z,93.20
2018-03-15T05:28:04.712Z,93.42
2018-03-15T05:30:34.270Z,94.03
2018-03-15T05:33:05.034Z,93.65
2018-03-15T05:35:34.768Z,93.76
2018-03-15T05:38:05.500Z,92.58
2018-03-15T05:40:35.116Z,92.75
2018-03-15T05:43:05.718Z,92.06
2018-03-15T05:45:35.359Z,92.18
2018-03-15T05:48:05.043Z,91.74
2018-03-15T05:50:35.756Z,91.20
2018-03-15T05:53:05.636Z,91.71
2018-03-15T05:55:35.327Z,91.50
2018-03-15T05:58:05.018Z,90.80
2018-03-15T06:00:34.553Z,90.12
2018-03-15T06:03:05.257Z,90.83
2018-03-15T06:05:36.885Z,91.50
2018-03-15T06:08:08.135Z,91.88
2018-03-15T06:10:38.463Z,92.49
2018-03-15T06:13:08.376Z,93.35
2018-03-15T06:15:38.148Z,93.61
2018-03-15T06:18:07.944Z,93.86
2018-03-15T06:20:39.134Z,93.95
2018-03-15T06:23:08.893Z,94.40
2018-03-15T06:25:38.461Z,94.39
2018-03-15T06:28:08.196Z,94.51
2018-03-15T06:30:37.790Z,94.45
2018-03-15T06:33:07.349Z,94.39
2018-03-15T06:35:36.897Z,94.17
2018-03-15T06:38:06.527Z,94.24
2018-03-15T06:40:36.251Z,94.08
2018-03-15T06:43:05.873Z,93.52
2018-03-15T06:45:35.495Z,92.65
2018-03-15T06:48:05.078Z,91.32
2018-03-15T06:50:34.652Z,91.01
2018-03-15T06:53:04.355Z,90.58
2018-03-15T06:55:34.741Z,91.44
2018-03-15T06:58:04.369Z,92.22
2018-03-15T07:00:34.586Z,92.22
2018-03-15T07:03:04.464Z,92.17
2018-03-15T07:05:34.225Z,91.65
2018-03-15T07:08:04.494Z,91.12
2018-03-15T07:10:34.332Z,90.48
2018-03-15T07:13:04.861Z,89.81
2018-03-15T07:15:34.917Z,89.36
2018-03-15T07:18:05.316Z,88.60
2018-03-15T07:20:35.394Z,88.75
2018-03-15T07:23:05.106Z,87.97
2018-03-15T07:25:35.746Z,87.08
2018-03-15T07:28:05.559Z,87.42
2018-03-15T07:30:35.220Z,86.62
2018-03-15T07:33:05.802Z,87.10
2018-03-15T07:35:36.118Z,87.17
2018-03-15T07:38:06.080Z,86.73
2018-03-15T07:40:36.341Z,85.66
2018-03-15T07:43:06.067Z,84.12
2018-03-15T07:45:35.786Z,81.72
2018-03-15T07:48:05.432Z,81.71
2018-03-15T07:50:35.760Z,82.86
2018-03-15T07:53:06.306Z,84.15
2018-03-15T07:55:36.031Z,85.15
2018-03-15T07:58:06.029Z,85.27
2018-03-15T08:00:37.279Z,85.46
2018-03-15T08:03:07.485Z,84.91
2018-03-15T08:05:38.010Z,84.36
2018-03-15T08:08:08.494Z,85.26
2018-03-15T08:10:38.556Z,84.34
2018-03-15T08:13:08.547Z,84.66
2018-03-15T08:15:41.638Z,85.09
2018-03-15T08:18:11.259Z,84.15
2018-03-15T08:20:40.760Z,84.27
2018-03-15T08:23:10.347Z,84.28
2018-03-15T08:25:40.666Z,84.51
2018-03-15T08:28:10.276Z,83.56
2018-03-15T08:30:39.798Z,83.92
2018-03-15T08:33:09.596Z,83.43
2018-03-15T08:35:39.186Z,83.29
2018-03-15T08:38:10.007Z,83.45
2018-03-15T08:40:40.554Z,82.60
2018-03-15T08:43:11.592Z,82.59
2018-03-15T08:45:41.435Z,82.64
2018-03-15T08:48:11.032Z,82.80
2018-03-15T08:50:40.628Z,82.63
2018-03-15T08:53:10.411Z,83.03
2018-03-15T08:55:40.917Z,82.97
2018-03-15T08:58:11.319Z,83.04
2018-03-15T09:00:41.029Z,82.52
2018-03-15T09:03:10.700Z,82.33
2018-03-15T09:05:41.492Z,81.70
2018-03-15T09:08:12.603Z,82.11
2018-03-15T09:10:42.714Z,82.17
2018-03-15T09:13:12.181Z,82.22
2018-03-15T09:15:42.570Z,82.32
2018-03-15T09:18:12.384Z,82.27
2018-03-15T09:20:41.876Z,82.50
2018-03-15T09:23:11.382Z,82.00
2018-03-15T09:25:41.100Z,81.58
2018-03-15T09:28:10.764Z,81.75
2018-03-15T09:30:41.142Z,80.88
2018-03-15T09:33:10.904Z,80.94
2018-03-15T09:35:40.558Z,80.15
2018-03-15T09:38:10.468Z,79.11
2018-03-15T09:40:40.199Z,79.02
2018-03-15T09:43:11.927Z,77.76
2018-03-15T09:45:43.198Z,77.59
2018-03-15T09:48:13.003Z,76.43
2018-03-15T09:50:43.541Z,75.94
2018-03-15T09:53:13.956Z,75.29
2018-03-15T09:55:43.434Z,75.56
2018-03-15T09:58:13.225Z,75.33
2018-03-15T10:00:42.928Z,75.88
2018-03-15T10:03:13.258Z,75.70
2018-03-15T10:05:42.826Z,75.70
2018-03-15T10:08:12.532Z,75.19
2018-03-15T10:10:42.082Z,75.44
2018-03-15T10:13:11.843Z,75.04
2018-03-15T10:15:42.330Z,74.06
2018-03-15T10:18:13.923Z,72.10
2018-03-15T10:20:46.489Z,71.45
2018-03-15T10:23:16.247Z,71.68
2018-03-15T10:25:46.797Z,71.51
2018-03-15T10:28:17.442Z,69.69
2018-03-15T10:30:46.952Z,69.96
2018-03-15T10:33:21.997Z,68.82
2018-03-15T10:35:51.526Z,69.08
2018-03-15T10:38:21.949Z,67.81
2018-03-15T10:40:51.680Z,66.86
2018-03-15T10:43:22.921Z,65.96
2018-03-15T10:45:52.619Z,68.62
2018-03-15T10:48:22.338Z,68.84
2018-03-15T10:50:52.865Z,69.96
2018-03-15T10:53:22.651Z,70.19
2018-03-15T10:55:52.392Z,69.81
2018-03-15T10:58:43.495Z,69.96
2018-03-15T11:01:26.445Z,67.39
2018-03-15T11:04:11.930Z,67.81
2018-03-15T11:10:01.645Z,68.27
2018-03-15T11:12:35.297Z,67.87
2018-03-15T11:15:06.612Z,68.41
2018-03-15T11:17:36.515Z,67.77
2018-03-15T11:20:07.036Z,67.79
2018-03-15T11:22:36.878Z,67.28
2018-03-15T11:25:06.437Z,66.93
2018-03-15T11:27:36.236Z,67.41
2018-03-15T11:30:06.916Z,67.79
2018-03-15T11:32:37.618Z,67.97
2018-03-15T11:35:07.416Z,68.28
2018-03-15T11:37:39.056Z,68.39
2018-03-15T11:40:08.967Z,68.42
2018-03-15T11:42:38.703Z,68.67
2018-03-15T11:45:08.609Z,68.95
2018-03-15T11:47:38.297Z,68.69
2018-03-15T11:50:07.909Z,68.93
2018-03-15T11:52:38.531Z,68.85
2018-03-15T11:55:08.171Z,69.27
2018-03-15T11:57:37.989Z,69.54
2018-03-15T12:00:07.936Z,69.23
2018-03-15T12:02:37.857Z,68.30
2018-03-15T12:05:08.649Z,68.40
2018-03-15T12:07:39.256Z,69.07
2018-03-15T12:10:11.650Z,69.08
2018-03-15T12:12:41.276Z,68.87
2018-03-15T12:15:11.338Z,69.20
2018-03-15T12:17:41.361Z,69.92
2018-03-15T12:20:11.536Z,71.01
2018-03-15T12:22:42.896Z,71.10
2018-03-15T12:25:16.017Z,72.08
2018-03-15T12:27:46.572Z,72.04
2018-03-15T12:30:16.340Z,70.97
2018-03-15T12:32:45.987Z,70.29
2018-03-15T12:35:16.955Z,69.86
2018-03-15T12:37:46.790Z,69.06
2018-03-15T12:40:16.772Z,69.24
2018-03-15T12:42:47.916Z,68.93
2018-03-15T12:45:17.542Z,68.73
2018-03-15T12:47:51.063Z,68.43
2018-03-15T12:50:20.746Z,68.96
2018-03-15T12:52:53.251Z,68.54
2018-03-15T12:55:23.712Z,68.91
2018-03-15T12:57:53.224Z,68.02
2018-03-15T13:00:24.428Z,69.05
2018-03-15T13:02:54.461Z,68.14
2018-03-15T13:05:23.991Z,68.00
2018-03-15T13:07:55.378Z,68.53
2018-03-15T13:10:26.470Z,69.89
2018-03-15T13:12:56.058Z,70.07
2018-03-15T13:15:25.597Z,69.22
2018-03-15T13:17:55.287Z,68.74
2018-03-15T13:20:28.177Z,69.28
2018-03-15T13:22:57.890Z,69.17
2018-03-15T13:25:29.065Z,72.56
2018-03-15T13:28:00.270Z,76.14
2018-03-15T13:30:30.862Z,76.38
2018-03-15T13:33:00.359Z,76.50
2018-03-15T13:35:29.967Z,76.64
2018-03-15T13:37:59.914Z,76.87
2018-03-15T13:40:29.604Z,77.04
2018-03-15T13:42:59.203Z,77.54
2018-03-15T13:45:28.888Z,77.33
2018-03-15T13:47:58.372Z,77.34
2018-03-15T13:50:28.633Z,78.44
2018-03-15T13:52:58.363Z,78.61
2018-03-15T13:55:28.140Z,79.14
2018-03-15T13:57:58.783Z,78.04
2018-03-15T14:00:28.283Z,78.03
2018-03-15T14:02:58.181Z,78.29
2018-03-15T14:05:28.567Z,78.11
2018-03-15T14:07:58.173Z,78.51
2018-03-15T14:10:29.809Z,79.21
2018-03-15T14:12:59.344Z,78.38
2018-03-15T14:15:28.867Z,80.33
2018-03-15T14:18:00.114Z,79.31
2018-03-15T14:20:29.861Z,79.61
2018-03-15T14:22:59.387Z,80.55
2018-03-15T14:25:29.038Z,79.56
2018-03-15T14:27:59.535Z,80.36
2018-03-15T14:30:29.986Z,79.16
2018-03-15T14:33:00.417Z,79.03
2018-03-15T14:35:30.751Z,79.67
2018-03-15T14:38:01.163Z,79.42
2018-03-15T14:40:31.644Z,79.52
2018-03-15T14:43:01.253Z,80.43
2018-03-15T14:45:30.765Z,79.96
2018-03-15T14:48:00.456Z,79.62
2018-03-15T14:50:30.074Z,79.17
2018-03-15T14:53:00.314Z,79.12
2018-03-15T14:55:29.867Z,79.37
2018-03-15T14:58:02.065Z,80.04
2018-03-15T15:13:19.686Z,80.27
2018-03-15T15:15:49.603Z,81.28
2018-03-15T15:18:21.210Z,79.55
2018-03-15T15:20:51.016Z,80.58
2018-03-15T15:23:21.687Z,81.02
2018-03-15T15:25:52.069Z,80.20
2018-03-15T15:28:21.686Z,80.23
2018-03-15T15:30:51.151Z,80.89
2018-03-15T15:33:20.995Z,81.20
2018-03-15T15:35:51.526Z,82.93
2018-03-15T15:38:21.187Z,82.73
2018-03-15T15:40:50.818Z,82.65
2018-03-15T15:43:20.418Z,80.83
2018-03-15T15:45:50.015Z,81.32
2018-03-15T15:48:20.704Z,82.75
2018-03-15T15:50:50.313Z,82.10
2018-03-15T15:53:20.426Z,82.48
2018-03-15T15:55:50.326Z,83.30
2018-03-15T15:58:20.039Z,83.70
2018-03-15T16:00:50.418Z,83.66
2018-03-15T16:03:21.100Z,83.95
2018-03-15T16:05:51.627Z,83.81
2018-03-15T16:08:27.006Z,84.01
2018-03-15T16:10:59.111Z,84.52
2018-03-15T16:13:29.106Z,85.02
2018-03-15T16:15:59.827Z,85.25
2018-03-15T16:18:31.127Z,85.98
2018-03-15T16:21:00.847Z,85.95
2018-03-15T16:23:30.450Z,85.18
2018-03-15T16:26:00.985Z,84.70
2018-03-15T16:28:30.793Z,85.47
2018-03-15T16:31:01.009Z,86.62
2018-03-15T16:33:31.043Z,87.31
2018-03-15T16:36:01.098Z,87.34
2018-03-15T16:38:31.987Z,86.74
2018-03-15T16:41:02.092Z,86.63
2018-03-15T16:43:31.998Z,87.55
2018-03-15T16:46:02.580Z,87.67
2018-03-15T16:48:33.692Z,88.47
2018-03-15T16:51:03.481Z,88.73
2018-03-15T16:53:35.689Z,88.73
2018-03-15T16:56:05.783Z,88.47
2018-03-15T16:58:36.041Z,89.16
2018-03-15T17:01:05.889Z,89.18
2018-03-15T17:03:36.413Z,89.64
2018-03-15T17:06:13.482Z,89.26
2018-03-15T17:08:43.062Z,89.55
2018-03-15T17:11:15.556Z,89.52
2018-03-15T17:13:45.223Z,89.85
2018-03-15T17:16:14.974Z,89.61
2018-03-15T17:18:46.326Z,89.53
2018-03-15T17:21:16.948Z,89.75
2018-03-15T17:23:46.760Z,89.63
2018-03-15T17:26:24.023Z,89.66
2018-03-15T17:28:59.214Z,89.33
2018-03-15T17:31:29.368Z,89.07
2018-03-15T17:33:59.962Z,88.69
2018-03-15T17:36:30.968Z,88.54
2018-03-15T17:39:01.201Z,89.13
2018-03-15T17:41:33.350Z,89.86
2018-03-15T17:44:04.967Z,89.57
2018-03-15T17:46:34.927Z,89.55
2018-03-15T17:49:10.655Z,89.47
2018-03-15T17:51:46.306Z,90.00
2018-03-15T17:54:17.273Z,89.97
2018-03-15T17:56:50.607Z,90.16
2018-03-15T17:59:25.896Z,90.57
2018-03-15T18:01:57.583Z,90.34
2018-03-15T18:04:29.151Z,89.62
2018-03-15T18:06:59.205Z,89.48
2018-03-15T18:09:29.674Z,90.29
2018-03-15T18:12:17.188Z,90.63
2018-03-15T18:14:48.035Z,90.70
2018-03-15T18:17:18.509Z,90.66
2018-03-15T18:19:48.741Z,90.42
2018-03-15T18:22:23.242Z,90.63
2018-03-15T18:24:54.086Z,90.74
2018-03-15T18:27:24.627Z,90.79
2018-03-15T18:29:57.734Z,91.42
2018-03-15T18:33:04.037Z,91.18
2018-03-15T18:35:35.105Z,91.18
2018-03-15T18:38:07.014Z,91.15
2018-03-15T18:40:46.853Z,91.62
2018-03-15T18:43:16.938Z,91.88
2018-03-15T18:45:49.513Z,91.92
2018-03-15T18:48:19.833Z,91.88
2018-03-15T18:50:52.020Z,91.99
2018-03-15T18:53:23.123Z,92.23
2018-03-15T18:55:53.175Z,92.08
2018-03-15T18:58:23.508Z,92.07
2018-03-15T19:01:02.082Z,91.94
2018-03-15T19:03:32.513Z,91.62
2018-03-15T19:06:02.821Z,92.07
2018-03-15T19:08:32.860Z,92.01
2018-03-15T19:11:05.469Z,91.82
2018-03-15T19:13:36.414Z,92.06
2018-03-15T19:16:09.707Z,92.40
2018-03-15T19:18:47.030Z,92.64
2018-03-15T19:21:19.277Z,92.61
2018-03-15T19:23:49.570Z,92.92
2018-03-15T19:26:21.997Z,92.88
2018-03-15T19:29:16.033Z,93.04
2018-03-15T19:31:47.014Z,93.22
2018-03-15T19:34:23.481Z,92.93
2018-03-15T19:36:55.821Z,93.03
2018-03-15T19:39:26.472Z,93.23
2018-03-15T19:41:57.098Z,93.02
2018-03-15T19:44:27.365Z,93.50
2018-03-15T19:46:59.150Z,93.57
2018-03-15T19:49:30.401Z,93.24
2018-03-15T19:52:01.002Z,93.21
2018-03-15T19:54:31.268Z,93.08
2018-03-15T19:57:11.000Z,93.51
2018-03-15T19:59:42.493Z,93.39
2018-03-15T20:02:24.394Z,93.42
2018-03-15T20:04:56.505Z,93.20
2018-03-15T20:07:35.023Z,93.13
2018-03-15T20:13:40.734Z,93.54
2018-03-15T20:16:16.037Z,93.10
2018-03-15T20:18:46.077Z,93.17
2018-03-15T20:21:16.199Z,92.41
2018-03-15T20:23:51.858Z,92.34
2018-03-15T20:26:21.796Z,92.50
2018-03-15T20:28:51.651Z,92.23
2018-03-15T20:31:22.684Z,91.80
2018-03-15T20:34:03.410Z,92.31
2018-03-15T20:36:37.860Z,92.08
2018-03-15T20:39:27.298Z,91.90
2018-03-15T20:41:59.482Z,92.49
2018-03-15T20:44:33.377Z,91.66
2018-03-15T20:47:33.171Z,92.41
2018-03-15T20:50:04.730Z,92.18
2018-03-15T20:52:37.275Z,92.30
2018-03-15T20:55:19.174Z,92.11
2018-03-15T20:57:51.909Z,92.80
2018-03-15T21:00:23.572Z,91.83
2018-03-15T21:02:55.743Z,91.71
2018-03-15T21:05:32.509Z,91.63
2018-03-15T21:08:02.678Z,92.25
2018-03-15T21:10:32.811Z,92.10
2018-03-15T21:13:03.502Z,93.02
2018-03-15T21:15:34.848Z,93.43
2018-03-15T21:18:08.263Z,93.55
2018-03-15T21:20:45.087Z,93.45
2018-03-15T21:23:16.509Z,93.33
2018-03-15T21:25:47.440Z,93.71
2018-03-15T21:28:24.910Z,94.05
2018-03-15T21:30:56.067Z,94.36
2018-03-15T21:33:28.028Z,94.58
2018-03-15T21:36:11.026Z,94.47
2018-03-15T21:39:04.562Z,94.75
2018-03-15T21:41:42.004Z,94.91
2018-03-15T21:44:13.556Z,94.83
2018-03-15T21:46:44.618Z,94.87
2018-03-15T21:49:14.515Z,95.02
2018-03-15T21:51:44.928Z,95.33
2018-03-15T21:54:38.214Z,95.07
2018-03-15T21:57:27.704Z,95.05
2018-03-15T21:59:58.221Z,95.25
2018-03-15T22:02:28.081Z,95.27
2018-03-15T22:04:58.750Z,95.24
2018-03-15T22:07:28.824Z,95.20
2018-03-15T22:09:59.704Z,95.22
2018-03-15T22:12:32.259Z,95.37
2018-03-15T22:15:02.596Z,95.50
2018-03-15T22:17:39.046Z,95.54
2018-03-15T22:20:09.410Z,95.70
2018-03-15T22:22:39.148Z,95.74
2018-03-15T22:25:44.205Z,95.76
2018-03-15T22:28:22.440Z,95.76
2018-03-15T22:31:02.744Z,95.80
2018-03-15T22:37:06.688Z,95.82
2018-03-15T22:39:36.630Z,95.91
2018-03-15T22:42:06.215Z,96.04
2018-03-15T22:44:53.010Z,96.07
2018-03-15T22:47:39.002Z,96.15
2018-03-15T22:50:09.296Z,96.15
2018-03-15T22:52:40.295Z,96.12
2018-03-15T22:55:25.888Z,96.09
2018-03-15T22:57:59.399Z,96.20
2018-03-15T23:01:06.034Z,96.32
2018-03-15T23:03:37.331Z,96.41
2018-03-15T23:06:07.597Z,96.51
2018-03-15T23:08:38.780Z,96.70
2018-03-15T23:11:14.006Z,96.61
2018-03-15T23:13:45.609Z,96.74
2018-03-15T23:16:21.875Z,96.64
2018-03-15T23:18:52.464Z,96.74
2018-03-15T23:21:22.286Z,96.82
2018-03-15T23:23:52.323Z,96.77
2018-03-15T23:26:23.005Z,96.74
2018-03-15T23:28:56.708Z,96.53
2018-03-15T23:31:28.252Z,96.50
2018-03-15T23:34:00.706Z,96.64
2018-03-15T23:36:40.305Z,96.70
2018-03-15T23:39:13.643Z,96.46
2018-03-15T23:42:01.702Z,96.68
2018-03-15T23:44:32.350Z,96.68
2018-03-15T23:47:03.712Z,96.73
2018-03-15T23:49:36.001Z,96.71
2018-03-15T23:52:06.057Z,96.73
2018-03-15T23:54:41.340Z,96.79
2018-03-15T23:57:12.397Z,96.75
2018-03-15T23:59:45.316Z,96.71
